createdAt,value
2018-09-02T00:00:05.573Z,14.00
2018-09-02T00:02:33.841Z,15.88
2018-09-02T00:05:02.150Z,13.98
2018-09-02T00:07:30.438Z,13.98
2018-09-02T00:09:58.889Z,14.60
2018-09-02T00:12:27.152Z,15.65
2018-09-02T00:14:55.512Z,16.40
2018-09-02T00:17:23.753Z,15.98
2018-09-02T00:19:52.019Z,16.75
2018-09-02T00:22:20.308Z,15.00
2018-09-02T00:24:48.538Z,16.65
2018-09-02T00:27:16.811Z,17.35
2018-09-02T00:29:45.037Z,16.55
2018-09-02T00:32:13.325Z,15.13
2018-09-02T00:34:41.569Z,16.87
2018-09-02T00:37:09.845Z,15.23
2018-09-02T00:39:38.127Z,14.63
2018-09-02T00:42:06.377Z,15.03
2018-09-02T00:44:34.622Z,15.10
2018-09-02T00:47:02.880Z,16.70
2018-09-02T00:49:31.150Z,17.75
2018-09-02T00:51:59.402Z,16.52
2018-09-02T00:54:27.697Z,18.00
2018-09-02T00:56:55.960Z,15.58
2018-09-02T00:59:24.208Z,18.00
2018-09-02T01:01:52.493Z,17.30
2018-09-02T01:04:20.806Z,16.52
2018-09-02T01:06:49.088Z,16.90
2018-09-02T01:09:17.365Z,16.00
2018-09-02T01:11:45.625Z,15.32
2018-09-02T01:14:13.857Z,16.87
2018-09-02T01:16:42.135Z,16.07
2018-09-02T01:19:10.396Z,15.85
2018-09-02T01:21:38.822Z,15.65
2018-09-02T01:24:07.176Z,16.62
2018-09-02T01:26:35.456Z,15.72
2018-09-02T01:29:03.820Z,15.98
2018-09-02T01:31:32.118Z,14.80
2018-09-02T01:34:00.408Z,16.35
2018-09-02T01:36:28.698Z,16.48
2018-09-02T01:38:56.994Z,14.65
2018-09-02T01:41:25.284Z,14.75
2018-09-02T01:43:53.564Z,15.35
2018-09-02T01:46:21.840Z,15.90
2018-09-02T01:48:50.127Z,15.43
2018-09-02T01:51:18.440Z,14.70
2018-09-02T01:53:46.853Z,15.28
2018-09-02T01:56:15.140Z,16.50
2018-09-02T01:58:43.424Z,15.13
2018-09-02T02:01:11.707Z,13.40
2018-09-02T02:03:40.020Z,14.83
2018-09-02T02:06:08.338Z,15.10
2018-09-02T02:08:36.674Z,14.33
2018-09-02T02:11:04.939Z,14.30
2018-09-02T02:13:33.242Z,14.65
2018-09-02T02:16:01.524Z,15.43
2018-09-02T02:18:29.820Z,14.75
2018-09-02T02:20:58.155Z,14.50
2018-09-02T02:23:26.437Z,15.70
2018-09-02T02:25:54.723Z,14.25
2018-09-02T02:28:22.998Z,13.70
2018-09-02T02:30:51.268Z,14.55
2018-09-02T02:33:19.561Z,15.18
2018-09-02T02:35:47.836Z,15.75
2018-09-02T02:38:16.130Z,15.05
2018-09-02T02:40:44.413Z,13.90
2018-09-02T02:43:12.700Z,13.95
2018-09-02T02:45:40.988Z,13.80
2018-09-02T02:48:09.281Z,14.20
2018-09-02T02:50:37.580Z,14.13
2018-09-02T02:53:06.237Z,14.98
2018-09-02T02:55:35.454Z,13.88
2018-09-02T02:58:03.917Z,14.30
2018-09-02T03:00:32.899Z,14.20
2018-09-02T03:03:01.248Z,14.00
2018-09-02T03:05:29.841Z,14.03
2018-09-02T03:07:58.135Z,15.05
2018-09-02T03:10:26.418Z,16.35
2018-09-02T03:12:54.715Z,14.45
2018-09-02T03:15:23.065Z,15.30
2018-09-02T03:17:51.348Z,16.30
2018-09-02T03:20:19.621Z,15.05
2018-09-02T03:22:47.912Z,15.55
2018-09-02T03:25:16.184Z,14.30
2018-09-02T03:27:44.480Z,15.98
2018-09-02T03:30:12.778Z,15.30
2018-09-02T03:32:41.059Z,15.72
2018-09-02T03:35:09.336Z,16.15
2018-09-02T03:37:37.610Z,15.28
2018-09-02T03:40:06.156Z,15.75
2018-09-02T03:42:34.427Z,14.90
2018-09-02T03:45:02.709Z,14.75
2018-09-02T03:47:30.973Z,15.10
2018-09-02T03:49:59.263Z,14.93
2018-09-02T03:52:27.539Z,15.13
2018-09-02T03:54:55.813Z,14.13
2018-09-02T03:57:24.092Z,14.30
2018-09-02T03:59:52.389Z,14.93
2018-09-02T04:02:20.698Z,12.90
2018-09-02T04:04:48.989Z,14.45
2018-09-02T04:07:17.297Z,12.85
2018-09-02T04:09:45.658Z,16.00
2018-09-02T04:12:13.951Z,14.83
2018-09-02T04:14:42.251Z,14.10
2018-09-02T04:17:10.592Z,14.10
2018-09-02T04:19:38.878Z,13.90
2018-09-02T04:22:07.168Z,14.00
2018-09-02T04:24:35.508Z,13.65
2018-09-02T04:27:03.801Z,14.30
2018-09-02T04:29:32.104Z,13.75
2018-09-02T04:32:00.415Z,13.78
2018-09-02T04:34:28.752Z,13.40
2018-09-02T04:36:57.036Z,13.80
2018-09-02T04:39:25.344Z,14.00
2018-09-02T04:41:53.694Z,13.70
2018-09-02T04:44:21.989Z,13.43
2018-09-02T04:46:50.291Z,13.55
2018-09-02T04:49:18.572Z,13.93
2018-09-02T04:51:46.872Z,15.20
2018-09-02T04:54:15.184Z,13.50
2018-09-02T04:56:43.488Z,14.28
2018-09-02T04:59:11.804Z,14.10
2018-09-02T05:01:40.137Z,12.50
2018-09-02T05:04:08.437Z,11.33
2018-09-02T05:06:36.725Z,13.80
2018-09-02T05:09:05.793Z,12.70
2018-09-02T05:11:34.083Z,12.85
2018-09-02T05:14:02.441Z,12.60
2018-09-02T05:16:30.676Z,12.30
2018-09-02T05:18:58.981Z,11.85
2018-09-02T05:21:27.281Z,10.70
2018-09-02T05:23:55.603Z,11.08
2018-09-02T05:26:24.032Z,11.75
2018-09-02T05:28:52.400Z,11.65
2018-09-02T05:31:20.764Z,10.80
2018-09-02T05:33:49.069Z,10.90
2018-09-02T05:36:17.348Z,11.25
2018-09-02T05:38:45.640Z,10.40
2018-09-02T05:41:13.924Z,11.60
2018-09-02T05:43:42.232Z,11.93
2018-09-02T05:46:10.516Z,11.22
2018-09-02T05:48:38.787Z,11.30
2018-09-02T05:51:07.081Z,11.95
2018-09-02T05:53:35.365Z,12.58
2018-09-02T05:56:03.660Z,13.03
2018-09-02T05:58:31.947Z,14.40
2018-09-02T06:01:00.249Z,13.25
2018-09-02T06:03:28.516Z,13.00
2018-09-02T06:05:56.824Z,14.53
2018-09-02T06:08:25.089Z,12.53
2018-09-02T06:10:53.382Z,15.30
2018-09-02T06:13:21.651Z,17.05
2018-09-02T06:15:49.931Z,15.78
2018-09-02T06:18:18.218Z,16.12
2018-09-02T06:20:46.544Z,16.48
2018-09-02T06:23:14.828Z,16.00
2018-09-02T06:25:43.133Z,15.48
2018-09-02T06:28:11.408Z,15.03
2018-09-02T06:30:39.725Z,15.43
2018-09-02T06:33:08.013Z,15.08
2018-09-02T06:35:36.366Z,17.12
2018-09-02T06:38:04.560Z,15.13
2018-09-02T06:40:32.846Z,14.87
2018-09-02T06:43:01.118Z,14.20
2018-09-02T06:45:29.438Z,17.70
2018-09-02T06:47:57.712Z,15.17
2018-09-02T06:50:26.042Z,14.13
2018-09-02T06:52:54.260Z,14.93
2018-09-02T06:55:22.543Z,14.80
2018-09-02T06:57:50.840Z,16.10
2018-09-02T07:00:19.213Z,15.03
2018-09-02T07:02:47.501Z,19.10
2018-09-02T07:05:15.805Z,18.40
2018-09-02T07:07:44.088Z,17.80
2018-09-02T07:10:12.378Z,18.67
2018-09-02T07:12:40.648Z,20.23
2018-09-02T07:15:08.921Z,21.90
2018-09-02T07:17:37.188Z,20.10
2018-09-02T07:20:05.479Z,20.30
2018-09-02T07:22:33.720Z,20.00
2018-09-02T07:25:02.016Z,20.90
2018-09-02T07:27:30.280Z,23.27
2018-09-02T07:29:58.588Z,22.32
2018-09-02T07:32:26.870Z,24.47
2018-09-02T07:34:55.136Z,18.85
2018-09-02T07:37:23.423Z,20.15
2018-09-02T07:39:51.710Z,23.90
2018-09-02T07:42:19.979Z,24.40
2018-09-02T07:44:48.258Z,22.30
2018-09-02T07:47:16.638Z,20.55
2018-09-02T07:49:44.933Z,18.10
2018-09-02T07:52:13.199Z,20.60
2018-09-02T07:54:41.489Z,18.42
2018-09-02T07:57:09.789Z,16.57
2018-09-02T07:59:38.072Z,17.73
2018-09-02T08:02:06.380Z,16.70
2018-09-02T08:04:34.693Z,14.83
2018-09-02T08:07:03.009Z,16.75
2018-09-02T08:09:31.328Z,14.20
2018-09-02T08:11:59.640Z,12.10
2018-09-02T08:14:27.931Z,11.73
2018-09-02T08:16:56.261Z,13.28
2018-09-02T08:19:24.546Z,11.45
2018-09-02T08:21:52.928Z,11.10
2018-09-02T08:24:21.180Z,10.88
2018-09-02T08:26:49.513Z,10.38
2018-09-02T08:29:17.827Z,11.53
2018-09-02T08:31:46.160Z,11.90
2018-09-02T08:34:14.444Z,12.93
2018-09-02T08:36:42.736Z,12.15
2018-09-02T08:39:11.920Z,11.50
2018-09-02T08:41:41.495Z,13.25
2018-09-02T08:44:09.793Z,15.08
2018-09-02T08:46:38.469Z,15.00
2018-09-02T08:49:06.836Z,15.43
2018-09-02T08:51:35.121Z,15.23
2018-09-02T08:54:03.400Z,17.03
2018-09-02T08:56:31.725Z,15.57
2018-09-02T08:58:59.996Z,16.47
2018-09-02T09:01:28.366Z,15.30
2018-09-02T09:03:56.663Z,14.27
2018-09-02T09:06:25.328Z,16.00
2018-09-02T09:08:53.998Z,14.25
2018-09-02T09:11:22.142Z,13.13
2018-09-02T09:13:50.441Z,13.30
2018-09-02T09:16:18.832Z,13.72
2018-09-02T09:18:47.067Z,12.70
2018-09-02T09:21:15.348Z,12.73
2018-09-02T09:23:43.615Z,12.70
2018-09-02T09:26:11.896Z,12.20
2018-09-02T09:28:40.192Z,12.75
2018-09-02T09:31:08.980Z,13.80
2018-09-02T09:33:37.289Z,14.00
2018-09-02T09:36:05.572Z,11.90
2018-09-02T09:38:33.849Z,13.65
2018-09-02T09:41:02.166Z,12.20
2018-09-02T09:43:31.188Z,13.20
2018-09-02T09:46:00.369Z,15.18
2018-09-02T09:48:28.609Z,16.10
2018-09-02T09:50:56.894Z,15.40
2018-09-02T09:53:25.197Z,15.40
2018-09-02T09:55:53.484Z,13.27
2018-09-02T09:58:21.763Z,13.83
2018-09-02T10:00:51.265Z,13.07
2018-09-02T10:03:20.163Z,11.85
2018-09-02T10:05:48.425Z,12.50
2018-09-02T10:08:16.723Z,12.70
2018-09-02T10:10:45.027Z,13.85
2018-09-02T10:13:13.325Z,13.48
2018-09-02T10:15:41.604Z,13.55
2018-09-02T10:18:10.014Z,14.05
2018-09-02T10:20:38.242Z,13.22
2018-09-02T10:23:06.544Z,13.55
2018-09-02T10:25:34.808Z,14.20
2018-09-02T10:28:03.104Z,12.88
2018-09-02T10:30:31.381Z,13.03
2018-09-02T10:32:59.690Z,14.28
2018-09-02T10:35:27.957Z,13.03
2018-09-02T10:37:56.257Z,12.50
2018-09-02T10:40:24.568Z,13.67
2018-09-02T10:42:52.849Z,13.43
2018-09-02T10:45:21.135Z,15.23
2018-09-02T10:47:49.437Z,14.57
2018-09-02T10:50:17.722Z,12.67
2018-09-02T10:52:45.989Z,11.40
2018-09-02T10:55:14.257Z,13.00
2018-09-02T10:57:42.528Z,14.30
2018-09-02T11:00:11.148Z,15.03
2018-09-02T11:02:39.749Z,15.47
2018-09-02T11:05:08.534Z,15.08
2018-09-02T11:07:36.861Z,16.62
2018-09-02T11:10:05.791Z,16.87
2018-09-02T11:12:34.068Z,17.50
2018-09-02T11:15:02.488Z,18.02
2018-09-02T11:17:30.789Z,19.52
2018-09-02T11:19:59.060Z,16.55
2018-09-02T11:22:27.357Z,17.27
2018-09-02T11:24:55.641Z,19.17
2018-09-02T11:27:23.919Z,16.93
2018-09-02T11:29:52.299Z,19.98
2018-09-02T11:32:20.612Z,19.02
2018-09-02T11:34:48.928Z,17.98
2018-09-02T11:37:17.191Z,18.95
2018-09-02T11:39:45.648Z,19.05
2018-09-02T11:42:13.955Z,19.00
2018-09-02T11:44:42.260Z,18.95
2018-09-02T11:47:10.540Z,21.07
2018-09-02T11:49:38.837Z,21.10
2018-09-02T11:52:07.149Z,23.20
2018-09-02T11:54:35.456Z,20.00
2018-09-02T11:57:03.777Z,21.15
2018-09-02T11:59:32.060Z,22.55
2018-09-02T12:02:00.427Z,21.15
2018-09-02T12:04:28.724Z,21.57
2018-09-02T12:06:57.071Z,22.65
2018-09-02T12:09:25.359Z,20.50
2018-09-02T12:11:53.668Z,21.48
2018-09-02T12:14:22.126Z,20.40
2018-09-02T12:16:50.328Z,21.12
2018-09-02T12:19:18.623Z,19.45
2018-09-02T12:21:46.949Z,19.70
2018-09-02T12:24:15.247Z,19.77
2018-09-02T12:26:43.541Z,20.45
2018-09-02T12:29:11.881Z,20.48
2018-09-02T12:31:40.242Z,21.00
2018-09-02T12:34:08.464Z,22.10
2018-09-02T12:36:36.763Z,23.40
2018-09-02T12:39:05.981Z,22.75
2018-09-02T12:41:34.271Z,25.05
2018-09-02T12:44:02.559Z,25.00
2018-09-02T12:46:30.837Z,22.80
2018-09-02T12:48:59.098Z,22.32
2018-09-02T12:51:27.386Z,23.73
2018-09-02T12:53:55.656Z,22.85
2018-09-02T12:56:23.924Z,25.10
2018-09-02T12:58:52.219Z,24.30
2018-09-02T13:01:20.592Z,24.80
2018-09-02T13:03:48.830Z,25.63
2018-09-02T13:06:17.117Z,23.77
2018-09-02T13:08:45.411Z,26.40
2018-09-02T13:11:13.677Z,29.87
2018-09-02T13:13:41.951Z,29.60
2018-09-02T13:16:10.284Z,31.00
2018-09-02T13:18:38.588Z,29.63
2018-09-02T13:21:07.113Z,27.87
2018-09-02T13:23:35.384Z,29.27
2018-09-02T13:26:03.649Z,28.25
2018-09-02T13:28:31.991Z,29.45
2018-09-02T13:31:00.261Z,28.40
2018-09-02T13:33:28.541Z,28.65
2018-09-02T13:35:56.848Z,29.07
2018-09-02T13:38:25.111Z,27.67
2018-09-02T13:40:53.417Z,27.30
2018-09-02T13:43:21.781Z,25.92
2018-09-02T13:45:49.959Z,26.17
2018-09-02T13:48:18.329Z,27.20
2018-09-02T13:50:46.553Z,26.90
2018-09-02T13:53:14.858Z,24.50
2018-09-02T13:55:43.129Z,24.27
2018-09-02T13:58:11.383Z,25.30
2018-09-02T14:00:39.702Z,24.40
2018-09-02T14:03:08.039Z,26.07
2018-09-02T14:05:36.340Z,27.87
2018-09-02T14:08:04.852Z,28.07
2018-09-02T14:10:33.120Z,27.80
2018-09-02T14:13:01.391Z,31.20
2018-09-02T14:15:29.695Z,32.30
2018-09-02T14:17:58.008Z,32.43
2018-09-02T14:20:26.299Z,31.57
2018-09-02T14:22:54.589Z,31.00
2018-09-02T14:25:22.852Z,32.67
2018-09-02T14:27:51.104Z,33.33
2018-09-02T14:30:22.620Z,32.00
2018-09-02T14:32:50.917Z,33.53
2018-09-02T14:35:19.203Z,32.90
2018-09-02T14:37:47.485Z,32.23
2018-09-02T14:40:15.744Z,35.03
2018-09-02T14:42:44.284Z,34.17
2018-09-02T14:45:12.562Z,35.38
2018-09-02T14:47:40.877Z,35.50
2018-09-02T14:50:09.213Z,31.85
2018-09-02T14:52:37.484Z,32.33
2018-09-02T14:55:05.873Z,34.80
2018-09-02T14:57:34.264Z,36.00
2018-09-02T15:00:02.570Z,33.98
2018-09-02T15:02:30.897Z,35.23
2018-09-02T15:04:59.193Z,34.67
2018-09-02T15:07:27.508Z,34.63
2018-09-02T15:09:56.037Z,34.33
2018-09-02T15:12:24.408Z,35.17
2018-09-02T15:14:52.717Z,32.35
2018-09-02T15:17:21.036Z,33.98
2018-09-02T15:19:49.322Z,35.10
2018-09-02T15:22:17.601Z,35.55
2018-09-02T15:24:45.887Z,38.58
2018-09-02T15:27:14.193Z,39.75
2018-09-02T15:29:42.465Z,39.18
2018-09-02T15:32:10.756Z,49.70
2018-09-02T15:34:39.060Z,49.20
2018-09-02T15:37:07.373Z,39.42
2018-09-02T15:39:35.778Z,34.90
2018-09-02T15:42:03.975Z,34.30
2018-09-02T15:44:32.279Z,32.23
2018-09-02T15:47:00.631Z,31.70
2018-09-02T15:49:28.968Z,32.25
2018-09-02T15:51:57.255Z,34.18
2018-09-02T15:54:25.544Z,31.30
2018-09-02T15:56:53.847Z,30.80
2018-09-02T15:59:22.153Z,34.27
2018-09-02T16:01:50.476Z,31.70
2018-09-02T16:04:18.778Z,29.75
2018-09-02T16:06:47.095Z,30.05
2018-09-02T16:09:15.378Z,29.75
2018-09-02T16:11:43.684Z,32.55
2018-09-02T16:14:12.004Z,31.70
2018-09-02T16:16:40.684Z,28.42
2018-09-02T16:19:08.985Z,29.10
2018-09-02T16:21:37.602Z,31.83
2018-09-02T16:24:06.003Z,30.82
2018-09-02T16:26:34.296Z,30.00
2018-09-02T16:29:02.598Z,32.40
2018-09-02T16:31:30.856Z,33.85
2018-09-02T16:33:59.171Z,32.17
2018-09-02T16:36:27.481Z,30.88
2018-09-02T16:38:55.744Z,28.95
2018-09-02T16:41:24.317Z,30.17
2018-09-02T16:43:52.548Z,30.35
2018-09-02T16:46:20.831Z,27.90
2018-09-02T16:48:49.155Z,30.08
2018-09-02T16:51:17.499Z,29.70
2018-09-02T16:53:45.838Z,31.42
2018-09-02T16:56:14.141Z,30.37
2018-09-02T16:58:42.469Z,30.90
2018-09-02T17:01:10.729Z,29.70
2018-09-02T17:03:42.044Z,31.52
2018-09-02T17:06:10.417Z,29.30
2018-09-02T17:08:38.668Z,30.92
2018-09-02T17:11:06.988Z,29.00
2018-09-02T17:13:35.327Z,28.07
2018-09-02T17:16:03.645Z,26.80
2018-09-02T17:18:32.032Z,26.70
2018-09-02T17:21:00.331Z,26.10
2018-09-02T17:23:28.625Z,24.90
2018-09-02T17:25:57.013Z,24.80
2018-09-02T17:28:25.226Z,24.00
2018-09-02T17:30:53.529Z,24.07
2018-09-02T17:33:21.834Z,26.52
2018-09-02T17:35:50.120Z,26.90
2018-09-02T17:38:18.484Z,26.23
2018-09-02T17:40:46.712Z,27.32
2018-09-02T17:43:15.028Z,25.90
2018-09-02T17:45:43.498Z,26.65
2018-09-02T17:48:11.744Z,29.55
2018-09-02T17:50:40.026Z,28.92
2018-09-02T17:53:08.328Z,29.60
2018-09-02T17:55:36.674Z,29.87
2018-09-02T17:58:04.926Z,29.60
2018-09-02T18:00:37.420Z,29.75
2018-09-02T18:03:06.124Z,29.57
2018-09-02T18:05:34.468Z,28.70
2018-09-02T18:08:05.382Z,27.10
2018-09-02T18:10:33.844Z,27.85
2018-09-02T18:13:02.133Z,29.67
2018-09-02T18:15:30.405Z,29.27
2018-09-02T18:17:58.670Z,27.22
2018-09-02T18:20:26.943Z,26.73
2018-09-02T18:22:55.660Z,26.30
2018-09-02T18:25:23.933Z,26.70
2018-09-02T18:27:55.140Z,28.70
2018-09-02T18:30:23.428Z,26.50
2018-09-02T18:32:51.722Z,26.43
2018-09-02T18:35:19.982Z,25.87
2018-09-02T18:37:48.267Z,26.20
2018-09-02T18:40:16.551Z,24.50
2018-09-02T18:42:44.808Z,24.65
2018-09-02T18:45:13.161Z,25.40
2018-09-02T18:47:41.366Z,23.70
2018-09-02T18:50:09.670Z,23.27
2018-09-02T18:52:38.023Z,24.20
2018-09-02T18:55:06.321Z,25.88
2018-09-02T18:57:34.612Z,22.30
2018-09-02T19:00:02.920Z,22.17
2018-09-02T19:02:31.239Z,22.17
2018-09-02T19:04:59.540Z,23.87
2018-09-02T19:07:27.835Z,24.07
2018-09-02T19:09:56.216Z,25.25
2018-09-02T19:12:24.431Z,24.52
2018-09-02T19:14:52.847Z,23.90
2018-09-02T19:17:21.092Z,23.35
2018-09-02T19:19:49.383Z,21.57
2018-09-02T19:22:17.677Z,20.40
2018-09-02T19:24:45.973Z,20.92
2018-09-02T19:27:14.256Z,21.45
2018-09-02T19:29:42.629Z,22.80
2018-09-02T19:32:10.901Z,21.10
2018-09-02T19:34:39.252Z,22.15
2018-09-02T19:37:07.592Z,21.12
2018-09-02T19:39:35.899Z,21.93
2018-09-02T19:42:04.228Z,19.40
2018-09-02T19:44:32.546Z,21.12
2018-09-02T19:47:00.889Z,20.25
2018-09-02T19:49:29.145Z,22.25
2018-09-02T19:51:57.443Z,22.37
2018-09-02T19:54:25.764Z,20.95
2018-09-02T19:56:54.103Z,18.65
2018-09-02T19:59:22.393Z,21.10
2018-09-02T20:01:50.673Z,21.90
2018-09-02T20:04:19.010Z,20.82
2018-09-02T20:06:47.290Z,22.22
2018-09-02T20:09:15.586Z,20.62
2018-09-02T20:11:43.886Z,21.50
2018-09-02T20:14:12.663Z,19.87
2018-09-02T20:16:40.940Z,19.00
2018-09-02T20:19:09.366Z,18.03
2018-09-02T20:21:37.639Z,19.13
2018-09-02T20:24:05.949Z,19.50
2018-09-02T20:26:35.184Z,19.90
2018-09-02T20:29:03.448Z,19.63
2018-09-02T20:31:31.729Z,20.50
2018-09-02T20:34:00.056Z,20.30
2018-09-02T20:36:28.384Z,21.27
2018-09-02T20:38:56.821Z,20.20
2018-09-02T20:41:25.115Z,16.93
2018-09-02T20:43:53.396Z,18.00
2018-09-02T20:46:21.703Z,18.17
2018-09-02T20:48:50.028Z,17.10
2018-09-02T20:51:18.631Z,20.10
2018-09-02T20:53:46.801Z,22.47
2018-09-02T20:56:15.091Z,19.03
2018-09-02T20:58:43.360Z,18.90
2018-09-02T21:01:11.683Z,19.57
2018-09-02T21:03:40.013Z,17.10
2018-09-02T21:06:08.338Z,17.33
2018-09-02T21:08:36.614Z,19.73
2018-09-02T21:11:04.896Z,20.67
2018-09-02T21:13:33.160Z,20.30
2018-09-02T21:16:01.426Z,17.50
2018-09-02T21:18:29.816Z,18.32
2018-09-02T21:20:58.091Z,18.00
2018-09-02T21:23:26.358Z,17.80
2018-09-02T21:25:54.708Z,18.47
2018-09-02T21:28:22.996Z,17.97
2018-09-02T21:30:51.296Z,16.73
2018-09-02T21:33:19.574Z,20.10
2018-09-02T21:35:47.855Z,20.37
2018-09-02T21:38:16.112Z,19.60
2018-09-02T21:40:44.427Z,19.20
2018-09-02T21:43:12.701Z,18.77
2018-09-02T21:45:40.992Z,17.30
2018-09-02T21:48:09.273Z,18.70
2018-09-02T21:50:37.571Z,18.60
2018-09-02T21:53:06.142Z,18.15
2018-09-02T21:55:34.435Z,18.60
2018-09-02T21:58:02.727Z,19.73
2018-09-02T22:00:31.164Z,20.60
2018-09-02T22:02:59.452Z,18.70
2018-09-02T22:05:27.755Z,20.20
2018-09-02T22:07:56.052Z,19.93
2018-09-02T22:10:24.343Z,16.37
2018-09-02T22:12:52.622Z,17.33
2018-09-02T22:15:20.924Z,18.77
2018-09-02T22:17:49.219Z,18.43
2018-09-02T22:20:17.525Z,17.00
2018-09-02T22:22:45.827Z,18.80
2018-09-02T22:25:14.113Z,18.67
2018-09-02T22:27:42.414Z,18.97
2018-09-02T22:30:10.742Z,19.70
2018-09-02T22:32:39.056Z,20.07
2018-09-02T22:35:07.341Z,20.10
2018-09-02T22:37:35.638Z,16.63
2018-09-02T22:40:03.968Z,18.12
2018-09-02T22:42:32.247Z,17.50
2018-09-02T22:45:00.537Z,17.20
2018-09-02T22:47:28.823Z,15.83
2018-09-02T22:49:57.102Z,17.10
2018-09-02T22:52:25.380Z,18.02
2018-09-02T22:54:53.676Z,19.65
2018-09-02T22:57:22.013Z,17.98
2018-09-02T22:59:50.261Z,16.90
2018-09-02T23:02:18.561Z,20.20
2018-09-02T23:04:46.853Z,18.52
2018-09-02T23:07:15.156Z,18.85
2018-09-02T23:09:43.459Z,18.87
2018-09-02T23:12:11.788Z,17.62
2018-09-02T23:14:40.096Z,16.42
2018-09-02T23:17:08.448Z,15.68
2018-09-02T23:19:36.749Z,17.52
2018-09-02T23:22:05.050Z,17.65
2018-09-02T23:24:33.340Z,16.85
2018-09-02T23:27:01.649Z,15.65
2018-09-02T23:29:29.958Z,17.48
2018-09-02T23:31:58.304Z,18.77
2018-09-02T23:34:26.588Z,16.95
2018-09-02T23:36:54.900Z,19.60
2018-09-02T23:39:23.193Z,19.25
2018-09-02T23:41:51.573Z,19.42
2018-09-02T23:44:19.869Z,19.95
2018-09-02T23:46:48.172Z,20.72
2018-09-02T23:49:16.468Z,20.95
2018-09-02T23:51:44.774Z,17.25
2018-09-02T23:54:13.075Z,18.52
2018-09-02T23:56:41.355Z,20.27
2018-09-02T23:59:09.666Z,18.62
